createdAt,value
2018-08-25T00:00:48.696Z,933.78
2018-08-25T00:01:48.718Z,933.75
2018-08-25T00:02:48.832Z,933.67
2018-08-25T00:03:48.748Z,933.64
2018-08-25T00:04:48.763Z,933.65
2018-08-25T00:05:48.780Z,933.65
2018-08-25T00:06:48.800Z,933.60
2018-08-25T00:07:48.917Z,933.60
2018-08-25T00:08:48.832Z,933.67
2018-08-25T00:09:48.853Z,933.67
2018-08-25T00:10:48.866Z,933.66
2018-08-25T00:11:48.866Z,933.63
2018-08-25T00:12:48.997Z,933.67
2018-08-25T00:13:48.917Z,933.66
2018-08-25T00:14:48.934Z,933.71
2018-08-25T00:15:48.933Z,933.78
2018-08-25T00:16:48.963Z,933.77
2018-08-25T00:17:49.132Z,933.81
2018-08-25T00:18:48.987Z,933.82
2018-08-25T00:19:49.015Z,933.84
2018-08-25T00:20:49.029Z,933.84
2018-08-25T00:21:49.050Z,933.83
2018-08-25T00:22:49.218Z,933.76
2018-08-25T00:23:49.078Z,933.72
2018-08-25T00:24:49.101Z,933.69
2018-08-25T00:25:49.114Z,933.68
2018-08-25T00:26:49.132Z,933.68
2018-08-25T00:27:49.248Z,933.68
2018-08-25T00:28:49.159Z,933.72
2018-08-25T00:29:49.182Z,933.72
2018-08-25T00:30:49.199Z,933.76
2018-08-25T00:31:49.215Z,933.75
2018-08-25T00:32:49.332Z,933.75
2018-08-25T00:33:49.243Z,933.74
2018-08-25T00:34:49.263Z,933.72
2018-08-25T00:35:49.282Z,933.74
2018-08-25T00:36:49.295Z,933.76
2018-08-25T00:37:49.414Z,933.76
2018-08-25T00:38:49.329Z,933.76
2018-08-25T00:39:49.346Z,933.82
2018-08-25T00:40:49.361Z,933.86
2018-08-25T00:41:49.379Z,933.89
2018-08-25T00:42:49.541Z,933.86
2018-08-25T00:43:49.621Z,933.88
2018-08-25T00:44:49.428Z,933.89
2018-08-25T00:45:49.446Z,933.88
2018-08-25T00:46:49.455Z,933.89
2018-08-25T00:47:49.643Z,933.94
2018-08-25T00:48:49.600Z,933.93
2018-08-25T00:49:49.496Z,933.91
2018-08-25T00:50:49.530Z,933.88
2018-08-25T00:51:49.539Z,933.85
2018-08-25T00:52:49.546Z,933.87
2018-08-25T00:53:49.806Z,933.89
2018-08-25T00:54:49.592Z,933.89
2018-08-25T00:55:49.610Z,933.84
2018-08-25T00:56:49.620Z,933.85
2018-08-25T00:57:49.641Z,933.86
2018-08-25T00:58:49.866Z,933.85
2018-08-25T00:59:49.674Z,933.80
2018-08-25T01:00:49.677Z,933.82
2018-08-25T01:01:49.708Z,933.81
2018-08-25T01:02:49.727Z,933.80
2018-08-25T01:03:49.892Z,933.75
2018-08-25T01:04:49.753Z,933.74
2018-08-25T01:05:49.772Z,933.77
2018-08-25T01:06:49.770Z,933.75
2018-08-25T01:07:49.800Z,933.77
2018-08-25T01:08:49.917Z,933.76
2018-08-25T01:09:49.827Z,933.71
2018-08-25T01:10:49.898Z,933.67
2018-08-25T01:11:49.867Z,933.55
2018-08-25T01:12:49.871Z,933.47
2018-08-25T01:13:50.049Z,933.41
2018-08-25T01:14:49.921Z,933.35
2018-08-25T01:15:49.931Z,933.31
2018-08-25T01:16:49.953Z,933.39
2018-08-25T01:17:49.966Z,933.42
2018-08-25T01:18:50.128Z,933.45
2018-08-25T01:19:50.038Z,933.54
2018-08-25T01:20:50.011Z,933.65
2018-08-25T01:21:50.033Z,933.65
2018-08-25T01:22:50.050Z,933.71
2018-08-25T01:23:50.213Z,933.71
2018-08-25T01:24:50.065Z,933.67
2018-08-25T01:25:50.114Z,933.69
2018-08-25T01:26:50.108Z,933.73
2018-08-25T01:27:50.127Z,933.76
2018-08-25T01:28:50.246Z,933.82
2018-08-25T01:29:50.155Z,933.83
2018-08-25T01:30:50.178Z,933.87
2018-08-25T01:31:50.192Z,933.87
2018-08-25T01:32:50.212Z,933.87
2018-08-25T01:33:50.372Z,933.89
2018-08-25T01:34:50.231Z,933.86
2018-08-25T01:35:50.255Z,933.86
2018-08-25T01:36:50.269Z,933.91
2018-08-25T01:37:50.295Z,933.93
2018-08-25T01:38:50.404Z,933.95
2018-08-25T01:39:50.324Z,933.92
2018-08-25T01:40:50.336Z,933.91
2018-08-25T01:41:50.348Z,933.89
2018-08-25T01:42:50.366Z,933.89
2018-08-25T01:43:50.640Z,933.92
2018-08-25T01:44:50.408Z,933.96
2018-08-25T01:45:50.423Z,933.96
2018-08-25T01:46:50.439Z,933.99
2018-08-25T01:47:50.448Z,934.05
2018-08-25T01:48:50.454Z,934.08
2018-08-25T01:49:50.584Z,934.10
2018-08-25T01:50:50.491Z,934.05
2018-08-25T01:51:50.496Z,934.02
2018-08-25T01:52:50.526Z,934.00
2018-08-25T01:53:50.542Z,934.01
2018-08-25T01:54:50.697Z,934.02
2018-08-25T01:55:50.575Z,934.03
2018-08-25T01:56:50.592Z,934.03
2018-08-25T01:57:50.593Z,934.05
2018-08-25T01:58:50.614Z,934.04
2018-08-25T01:59:50.792Z,934.05
2018-08-25T02:00:50.652Z,934.01
2018-08-25T02:01:50.673Z,934.00
2018-08-25T02:02:50.715Z,934.02
2018-08-25T02:03:50.688Z,933.97
2018-08-25T02:04:50.869Z,934.00
2018-08-25T02:05:50.719Z,933.99
2018-08-25T02:06:50.747Z,933.97
2018-08-25T02:07:50.748Z,933.98
2018-08-25T02:08:50.783Z,933.96
2018-08-25T02:09:50.946Z,933.97
2018-08-25T02:10:50.812Z,933.97
2018-08-25T02:11:50.835Z,933.99
2018-08-25T02:12:50.833Z,933.97
2018-08-25T02:13:50.858Z,933.98
2018-08-25T02:14:51.028Z,933.94
2018-08-25T02:15:50.893Z,933.99
2018-08-25T02:16:50.909Z,933.97
2018-08-25T02:17:50.925Z,933.98
2018-08-25T02:18:50.922Z,934.00
2018-08-25T02:19:51.039Z,933.99
2018-08-25T02:20:50.971Z,933.98
2018-08-25T02:21:50.984Z,933.97
2018-08-25T02:22:51.004Z,933.98
2018-08-25T02:23:51.002Z,933.98
2018-08-25T02:24:51.183Z,933.96
2018-08-25T02:25:51.029Z,933.88
2018-08-25T02:26:51.048Z,933.91
2018-08-25T02:27:51.082Z,933.86
2018-08-25T02:28:51.096Z,933.85
2018-08-25T02:29:51.211Z,933.85
2018-08-25T02:30:51.113Z,933.84
2018-08-25T02:31:51.142Z,933.83
2018-08-25T02:32:51.155Z,933.79
2018-08-25T02:33:51.174Z,933.78
2018-08-25T02:34:51.341Z,933.74
2018-08-25T02:35:51.206Z,933.78
2018-08-25T02:36:51.219Z,933.78
2018-08-25T02:37:51.224Z,933.83
2018-08-25T02:38:51.371Z,933.81
2018-08-25T02:39:51.374Z,933.77
2018-08-25T02:40:51.286Z,933.76
2018-08-25T02:41:51.307Z,933.72
2018-08-25T02:42:51.313Z,933.71
2018-08-25T02:43:51.333Z,933.70
2018-08-25T02:44:51.445Z,933.70
2018-08-25T02:45:51.366Z,933.63
2018-08-25T02:46:51.376Z,933.62
2018-08-25T02:47:51.392Z,933.61
2018-08-25T02:48:51.410Z,933.58
2018-08-25T02:49:51.564Z,933.60
2018-08-25T02:50:51.430Z,933.49
2018-08-25T02:51:51.456Z,933.49
2018-08-25T02:52:51.471Z,933.51
2018-08-25T02:53:51.495Z,933.45
2018-08-25T02:54:51.508Z,933.50
2018-08-25T02:55:51.607Z,933.54
2018-08-25T02:56:51.540Z,933.55
2018-08-25T02:57:51.552Z,933.55
2018-08-25T02:58:51.564Z,933.55
2018-08-25T02:59:51.587Z,933.57
2018-08-25T03:00:51.735Z,933.58
2018-08-25T03:01:51.614Z,933.60
2018-08-25T03:02:51.631Z,933.66
2018-08-25T03:03:51.648Z,933.70
2018-08-25T03:04:51.661Z,933.75
2018-08-25T03:05:51.779Z,933.80
2018-08-25T03:06:51.740Z,933.78
2018-08-25T03:07:51.708Z,933.80
2018-08-25T03:08:51.725Z,933.82
2018-08-25T03:09:51.739Z,933.81
2018-08-25T03:10:51.910Z,933.80
2018-08-25T03:11:51.774Z,933.83
2018-08-25T03:12:51.773Z,933.82
2018-08-25T03:13:51.813Z,933.84
2018-08-25T03:14:51.804Z,933.81
2018-08-25T03:15:51.972Z,933.81
2018-08-25T03:16:51.854Z,933.78
2018-08-25T03:17:51.866Z,933.75
2018-08-25T03:18:51.883Z,933.73
2018-08-25T03:19:51.885Z,933.70
2018-08-25T03:20:52.054Z,933.70
2018-08-25T03:21:51.928Z,933.65
2018-08-25T03:22:51.948Z,933.64
2018-08-25T03:23:51.962Z,933.60
2018-08-25T03:24:51.982Z,933.61
2018-08-25T03:25:52.146Z,933.57
2018-08-25T03:26:52.009Z,933.59
2018-08-25T03:27:52.010Z,933.60
2018-08-25T03:28:52.042Z,933.60
2018-08-25T03:29:52.055Z,933.59
2018-08-25T03:30:52.324Z,933.60
2018-08-25T03:31:52.097Z,933.53
2018-08-25T03:32:52.096Z,933.49
2018-08-25T03:33:52.108Z,933.42
2018-08-25T03:34:52.135Z,933.42
2018-08-25T03:35:52.299Z,933.40
2018-08-25T03:36:52.165Z,933.44
2018-08-25T03:37:52.183Z,933.43
2018-08-25T03:38:52.194Z,933.47
2018-08-25T03:39:52.209Z,933.52
2018-08-25T03:40:52.377Z,933.59
2018-08-25T03:41:52.244Z,933.66
2018-08-25T03:42:52.259Z,933.74
2018-08-25T03:43:52.274Z,933.88
2018-08-25T03:44:52.287Z,933.97
2018-08-25T03:45:52.557Z,934.13
2018-08-25T03:46:52.304Z,934.34
2018-08-25T03:47:52.324Z,934.35
2018-08-25T03:48:52.355Z,934.41
2018-08-25T03:49:52.368Z,934.59
2018-08-25T03:50:52.377Z,934.44
2018-08-25T03:51:52.551Z,934.61
2018-08-25T03:52:52.415Z,934.55
2018-08-25T03:53:52.431Z,934.47
2018-08-25T03:54:52.440Z,934.54
2018-08-25T03:55:52.457Z,934.56
2018-08-25T03:56:52.476Z,934.61
2018-08-25T03:57:52.587Z,934.61
2018-08-25T03:58:52.511Z,934.61
2018-08-25T03:59:52.518Z,934.61
2018-08-25T04:00:52.531Z,934.62
2018-08-25T04:01:52.548Z,934.62
2018-08-25T04:02:52.713Z,934.69
2018-08-25T04:03:52.580Z,934.69
2018-08-25T04:04:52.596Z,934.72
2018-08-25T04:05:52.611Z,934.72
2018-08-25T04:06:52.627Z,934.81
2018-08-25T04:07:52.783Z,934.87
2018-08-25T04:08:52.652Z,934.78
2018-08-25T04:09:52.663Z,934.83
2018-08-25T04:10:52.682Z,934.87
2018-08-25T04:11:52.696Z,934.85
2018-08-25T04:12:52.860Z,934.85
2018-08-25T04:13:52.725Z,934.84
2018-08-25T04:14:52.806Z,934.79
2018-08-25T04:15:52.736Z,934.84
2018-08-25T04:16:52.766Z,934.83
2018-08-25T04:17:52.932Z,934.99
2018-08-25T04:18:52.781Z,934.98
2018-08-25T04:19:52.813Z,935.16
2018-08-25T04:20:52.841Z,935.23
2018-08-25T04:21:52.822Z,935.29
2018-08-25T04:22:53.005Z,935.33
2018-08-25T04:23:52.869Z,935.35
2018-08-25T04:24:52.881Z,935.37
2018-08-25T04:25:52.899Z,935.39
2018-08-25T04:26:52.911Z,935.40
2018-08-25T04:27:53.030Z,935.46
2018-08-25T04:28:52.932Z,935.66
2018-08-25T04:29:52.935Z,935.67
2018-08-25T04:30:52.952Z,935.77
2018-08-25T04:31:52.963Z,935.81
2018-08-25T04:32:53.229Z,935.78
2018-08-25T04:33:52.996Z,935.78
2018-08-25T04:34:53.016Z,935.71
2018-08-25T04:35:53.030Z,935.68
2018-08-25T04:36:53.046Z,935.62
2018-08-25T04:37:53.218Z,935.57
2018-08-25T04:38:53.061Z,935.47
2018-08-25T04:39:53.092Z,935.42
2018-08-25T04:40:53.105Z,935.43
2018-08-25T04:41:53.124Z,935.38
2018-08-25T04:42:53.287Z,935.36
2018-08-25T04:43:53.154Z,935.42
2018-08-25T04:44:53.146Z,935.42
2018-08-25T04:45:53.164Z,935.46
2018-08-25T04:46:53.174Z,935.49
2018-08-25T04:47:53.349Z,935.51
2018-08-25T04:48:53.212Z,935.57
2018-08-25T04:49:53.229Z,935.53
2018-08-25T04:50:53.244Z,935.53
2018-08-25T04:51:53.261Z,935.54
2018-08-25T04:52:53.420Z,935.51
2018-08-25T04:53:53.269Z,935.52
2018-08-25T04:54:53.289Z,935.51
2018-08-25T04:55:53.300Z,935.54
2018-08-25T04:56:53.326Z,935.55
2018-08-25T04:57:53.492Z,935.56
2018-08-25T04:58:53.360Z,935.59
2018-08-25T04:59:53.357Z,935.58
2018-08-25T05:00:53.378Z,935.58
2018-08-25T05:01:53.461Z,935.53
2018-08-25T05:02:53.409Z,935.65
2018-08-25T05:03:53.525Z,935.69
2018-08-25T05:04:53.442Z,935.78
2018-08-25T05:05:53.442Z,935.83
2018-08-25T05:06:53.466Z,935.89
2018-08-25T05:07:53.466Z,935.84
2018-08-25T05:08:53.493Z,935.88
2018-08-25T05:09:53.655Z,935.85
2018-08-25T05:10:53.511Z,935.91
2018-08-25T05:11:53.537Z,935.92
2018-08-25T05:12:53.543Z,935.99
2018-08-25T05:13:53.563Z,936.01
2018-08-25T05:14:53.730Z,936.01
2018-08-25T05:15:53.590Z,935.99
2018-08-25T05:16:53.604Z,935.92
2018-08-25T05:17:53.619Z,935.85
2018-08-25T05:18:53.626Z,935.81
2018-08-25T05:19:53.748Z,935.80
2018-08-25T05:20:53.661Z,935.80
2018-08-25T05:21:53.739Z,935.79
2018-08-25T05:22:53.689Z,935.79
2018-08-25T05:23:53.698Z,935.73
2018-08-25T05:24:53.864Z,935.72
2018-08-25T05:25:53.729Z,935.64
2018-08-25T05:26:53.744Z,935.64
2018-08-25T05:27:53.751Z,935.66
2018-08-25T05:28:53.767Z,935.68
2018-08-25T05:29:53.866Z,935.72
2018-08-25T05:30:53.795Z,935.78
2018-08-25T05:31:53.795Z,935.81
2018-08-25T05:32:53.820Z,935.82
2018-08-25T05:33:53.822Z,935.74
2018-08-25T05:34:53.995Z,935.72
2018-08-25T05:35:53.861Z,935.71
2018-08-25T05:36:53.875Z,935.73
2018-08-25T05:37:53.883Z,935.84
2018-08-25T05:38:53.905Z,935.94
2018-08-25T05:39:54.064Z,935.93
2018-08-25T05:40:53.927Z,936.01
2018-08-25T05:41:53.944Z,936.00
2018-08-25T05:42:53.955Z,935.97
2018-08-25T05:43:53.964Z,935.96
2018-08-25T05:44:54.084Z,935.97
2018-08-25T05:45:53.996Z,936.02
2018-08-25T05:46:53.992Z,936.02
2018-08-25T05:47:54.021Z,936.02
2018-08-25T05:48:54.033Z,935.97
2018-08-25T05:49:54.200Z,935.97
2018-08-25T05:50:54.063Z,935.99
2018-08-25T05:51:54.081Z,935.96
2018-08-25T05:52:54.093Z,935.94
2018-08-25T05:53:54.097Z,935.95
2018-08-25T05:54:54.252Z,935.97
2018-08-25T05:55:54.126Z,935.99
2018-08-25T05:56:54.127Z,936.05
2018-08-25T05:57:54.159Z,936.05
2018-08-25T05:58:54.171Z,936.03
2018-08-25T05:59:54.338Z,936.00
2018-08-25T06:00:54.197Z,935.96
2018-08-25T06:01:54.211Z,935.93
2018-08-25T06:02:54.232Z,935.92
2018-08-25T06:03:54.224Z,935.88
2018-08-25T06:04:54.388Z,935.84
2018-08-25T06:05:54.255Z,935.85
2018-08-25T06:06:54.283Z,935.86
2018-08-25T06:07:54.292Z,935.87
2018-08-25T06:08:54.295Z,935.94
2018-08-25T06:09:54.465Z,935.94
2018-08-25T06:10:54.328Z,935.95
2018-08-25T06:11:54.350Z,936.02
2018-08-25T06:12:54.347Z,936.07
2018-08-25T06:13:54.372Z,936.11
2018-08-25T06:14:54.388Z,936.12
2018-08-25T06:15:54.551Z,936.17
2018-08-25T06:16:54.416Z,936.15
2018-08-25T06:17:54.414Z,936.16
2018-08-25T06:18:54.436Z,936.17
2018-08-25T06:19:54.454Z,936.18
2018-08-25T06:20:54.464Z,936.13
2018-08-25T06:21:54.632Z,936.16
2018-08-25T06:22:54.499Z,936.14
2018-08-25T06:23:54.493Z,936.11
2018-08-25T06:24:54.522Z,936.09
2018-08-25T06:25:54.526Z,936.07
2018-08-25T06:26:54.685Z,936.12
2018-08-25T06:27:54.565Z,936.13
2018-08-25T06:28:54.576Z,936.20
2018-08-25T06:29:54.620Z,936.21
2018-08-25T06:30:54.591Z,936.25
2018-08-25T06:31:54.764Z,936.24
2018-08-25T06:32:54.617Z,936.22
2018-08-25T06:33:54.648Z,936.17
2018-08-25T06:34:54.662Z,936.18
2018-08-25T06:35:54.675Z,936.11
2018-08-25T06:36:54.871Z,936.11
2018-08-25T06:37:54.702Z,936.05
2018-08-25T06:38:54.715Z,936.10
2018-08-25T06:39:54.724Z,936.08
2018-08-25T06:40:54.747Z,936.07
2018-08-25T06:41:54.889Z,936.00
2018-08-25T06:42:54.767Z,935.98
2018-08-25T06:43:54.779Z,935.94
2018-08-25T06:44:54.797Z,935.97
2018-08-25T06:45:54.799Z,936.00
2018-08-25T06:46:54.970Z,936.02
2018-08-25T06:47:54.832Z,936.00
2018-08-25T06:48:54.850Z,935.96
2018-08-25T06:49:54.900Z,935.93
2018-08-25T06:50:54.880Z,935.95
2018-08-25T06:51:55.040Z,935.96
2018-08-25T06:52:54.908Z,936.00
2018-08-25T06:53:54.917Z,936.04
2018-08-25T06:54:54.934Z,936.03
2018-08-25T06:55:54.947Z,936.08
2018-08-25T06:56:55.063Z,936.09
2018-08-25T06:57:54.970Z,936.11
2018-08-25T06:58:54.990Z,936.07
2018-08-25T06:59:55.002Z,936.09
2018-08-25T07:00:55.014Z,936.12
2018-08-25T07:01:55.132Z,936.09
2018-08-25T07:02:55.045Z,936.06
2018-08-25T07:03:55.043Z,935.98
2018-08-25T07:04:55.059Z,935.93
2018-08-25T07:05:55.123Z,935.96
2018-08-25T07:06:55.250Z,936.00
2018-08-25T07:07:55.111Z,936.00
2018-08-25T07:08:55.119Z,936.01
2018-08-25T07:09:55.122Z,936.00
2018-08-25T07:10:55.153Z,936.07
2018-08-25T07:11:55.265Z,936.08
2018-08-25T07:12:55.242Z,936.09
2018-08-25T07:13:55.197Z,936.13
2018-08-25T07:14:55.204Z,936.14
2018-08-25T07:15:55.223Z,936.21
2018-08-25T07:16:55.387Z,936.22
2018-08-25T07:17:55.231Z,936.22
2018-08-25T07:18:55.270Z,936.26
2018-08-25T07:19:55.280Z,936.30
2018-08-25T07:20:55.287Z,936.28
2018-08-25T07:21:55.457Z,936.24
2018-08-25T07:22:55.311Z,936.29
2018-08-25T07:23:55.330Z,936.32
2018-08-25T07:24:55.341Z,936.37
2018-08-25T07:25:55.409Z,936.40
2018-08-25T07:26:55.373Z,936.39
2018-08-25T07:27:55.529Z,936.42
2018-08-25T07:28:55.401Z,936.42
2018-08-25T07:29:55.398Z,936.38
2018-08-25T07:30:55.429Z,936.38
2018-08-25T07:31:55.515Z,936.44
2018-08-25T07:32:55.450Z,936.59
2018-08-25T07:33:55.615Z,936.75
2018-08-25T07:34:55.464Z,936.77
2018-08-25T07:35:55.488Z,936.39
2018-08-25T07:36:55.511Z,936.03
2018-08-25T07:37:55.518Z,935.98
2018-08-25T07:38:55.684Z,936.00
2018-08-25T07:39:55.549Z,935.97
2018-08-25T07:40:55.562Z,935.89
2018-08-25T07:41:55.572Z,935.87
2018-08-25T07:42:55.589Z,935.96
2018-08-25T07:43:55.736Z,936.09
2018-08-25T07:44:55.618Z,936.24
2018-08-25T07:45:55.627Z,936.30
2018-08-25T07:46:55.640Z,936.37
2018-08-25T07:47:55.658Z,936.34
2018-08-25T07:48:55.802Z,936.23
2018-08-25T07:49:55.667Z,936.18
2018-08-25T07:50:55.697Z,936.24
2018-08-25T07:51:55.711Z,936.30
2018-08-25T07:52:55.730Z,936.29
2018-08-25T07:53:55.883Z,936.40
2018-08-25T07:54:55.747Z,936.45
2018-08-25T07:55:55.762Z,936.50
2018-08-25T07:56:55.769Z,936.45
2018-08-25T07:57:55.788Z,936.47
2018-08-25T07:58:55.955Z,936.55
2018-08-25T07:59:55.815Z,936.64
2018-08-25T08:00:55.829Z,936.68
2018-08-25T08:01:55.840Z,936.71
2018-08-25T08:02:55.856Z,936.71
2018-08-25T08:03:56.116Z,936.76
2018-08-25T08:04:55.881Z,936.81
2018-08-25T08:05:55.892Z,936.85
2018-08-25T08:06:55.905Z,936.85
2018-08-25T08:07:55.914Z,936.82
2018-08-25T08:08:56.078Z,936.80
2018-08-25T08:09:55.942Z,936.76
2018-08-25T08:10:55.953Z,936.76
2018-08-25T08:11:56.017Z,936.71
2018-08-25T08:12:55.987Z,936.68
2018-08-25T08:13:56.132Z,936.56
2018-08-25T08:14:56.016Z,936.43
2018-08-25T08:15:56.019Z,936.24
2018-08-25T08:16:56.040Z,936.08
2018-08-25T08:17:56.057Z,935.97
2018-08-25T08:18:56.216Z,935.93
2018-08-25T08:19:56.075Z,935.96
2018-08-25T08:20:56.089Z,936.04
2018-08-25T08:21:56.106Z,936.09
2018-08-25T08:22:56.120Z,936.06
2018-08-25T08:23:56.280Z,936.07
2018-08-25T08:24:56.139Z,936.03
2018-08-25T08:25:56.155Z,935.96
2018-08-25T08:26:56.153Z,935.73
2018-08-25T08:27:56.178Z,935.52
2018-08-25T08:28:56.346Z,935.48
2018-08-25T08:29:56.208Z,935.64
2018-08-25T08:30:56.216Z,935.71
2018-08-25T08:31:56.242Z,935.68
2018-08-25T08:32:56.273Z,935.65
2018-08-25T08:33:56.394Z,935.59
2018-08-25T08:34:56.259Z,935.48
2018-08-25T08:35:56.283Z,935.40
2018-08-25T08:36:56.294Z,935.33
2018-08-25T08:37:56.294Z,935.21
2018-08-25T08:38:56.478Z,935.10
2018-08-25T08:39:56.337Z,934.94
2018-08-25T08:40:56.354Z,934.83
2018-08-25T08:41:56.363Z,934.73
2018-08-25T08:42:56.365Z,934.62
2018-08-25T08:43:56.371Z,934.59
2018-08-25T08:44:56.553Z,934.57
2018-08-25T08:45:56.416Z,934.57
2018-08-25T08:46:56.428Z,934.62
2018-08-25T08:47:56.431Z,934.68
2018-08-25T08:48:56.453Z,934.70
2018-08-25T08:49:56.756Z,934.68
2018-08-25T08:50:56.485Z,934.70
2018-08-25T08:51:56.494Z,934.81
2018-08-25T08:52:56.506Z,934.92
2018-08-25T08:53:56.504Z,934.90
2018-08-25T08:54:56.768Z,934.90
2018-08-25T08:55:56.528Z,934.91
2018-08-25T08:56:56.561Z,934.89
2018-08-25T08:57:56.575Z,934.90
2018-08-25T08:58:56.580Z,934.89
2018-08-25T08:59:56.857Z,934.98
2018-08-25T09:00:56.598Z,935.03
2018-08-25T09:01:56.610Z,935.13
2018-08-25T09:02:56.639Z,935.17
2018-08-25T09:03:56.649Z,935.20
2018-08-25T09:04:56.754Z,935.27
2018-08-25T09:05:56.671Z,935.34
2018-08-25T09:06:56.690Z,935.37
2018-08-25T09:07:56.684Z,935.37
2018-08-25T09:08:56.734Z,935.45
2018-08-25T09:09:56.873Z,935.50
2018-08-25T09:10:56.740Z,935.50
2018-08-25T09:11:56.742Z,935.48
2018-08-25T09:12:56.766Z,935.53
2018-08-25T09:13:56.781Z,935.53
2018-08-25T09:14:57.045Z,935.59
2018-08-25T09:15:56.802Z,935.62
2018-08-25T09:16:56.816Z,935.63
2018-08-25T09:17:56.822Z,935.65
2018-08-25T09:18:56.846Z,935.70
2018-08-25T09:19:57.103Z,935.70
2018-08-25T09:20:56.869Z,935.75
2018-08-25T09:21:56.880Z,935.74
2018-08-25T09:22:56.896Z,935.74
2018-08-25T09:23:56.891Z,935.73
2018-08-25T09:24:57.070Z,935.72
2018-08-25T09:25:56.930Z,935.65
2018-08-25T09:26:56.943Z,935.59
2018-08-25T09:27:56.961Z,935.51
2018-08-25T09:28:56.973Z,935.43
2018-08-25T09:29:57.121Z,935.39
2018-08-25T09:30:57.001Z,935.32
2018-08-25T09:31:57.007Z,935.31
2018-08-25T09:32:57.011Z,935.30
2018-08-25T09:33:57.050Z,935.28
2018-08-25T09:34:57.209Z,935.32
2018-08-25T09:35:57.226Z,935.32
2018-08-25T09:36:57.266Z,935.33
2018-08-25T09:37:57.094Z,935.29
2018-08-25T09:38:57.100Z,935.29
2018-08-25T09:39:57.270Z,935.30
2018-08-25T09:40:57.131Z,935.30
2018-08-25T09:41:57.131Z,935.30
2018-08-25T09:42:57.157Z,935.26
2018-08-25T09:43:57.172Z,935.27
2018-08-25T09:44:57.274Z,935.26
2018-08-25T09:45:57.199Z,935.25
2018-08-25T09:46:57.237Z,935.23
2018-08-25T09:47:57.221Z,935.16
2018-08-25T09:48:57.233Z,935.16
2018-08-25T09:49:57.359Z,935.21
2018-08-25T09:50:57.258Z,935.16
2018-08-25T09:51:57.267Z,935.11
2018-08-25T09:52:57.275Z,935.08
2018-08-25T09:53:57.301Z,935.09
2018-08-25T09:54:57.469Z,935.09
2018-08-25T09:55:57.324Z,935.11
2018-08-25T09:56:57.343Z,935.09
2018-08-25T09:57:57.346Z,935.06
2018-08-25T09:58:57.372Z,935.02
2018-08-25T09:59:57.376Z,934.97
2018-08-25T10:00:57.640Z,934.90
2018-08-25T10:01:57.406Z,934.96
2018-08-25T10:02:57.416Z,935.00
2018-08-25T10:03:57.431Z,934.97
2018-08-25T10:04:57.441Z,934.96
2018-08-25T10:05:57.611Z,934.91
2018-08-25T10:06:57.468Z,934.94
2018-08-25T10:07:57.489Z,934.89
2018-08-25T10:08:57.490Z,934.86
2018-08-25T10:09:57.498Z,934.86
2018-08-25T10:10:57.731Z,934.87
2018-08-25T10:11:57.531Z,934.97
2018-08-25T10:12:57.616Z,935.04
2018-08-25T10:13:57.556Z,935.16
2018-08-25T10:14:57.581Z,935.19
2018-08-25T10:15:57.735Z,935.22
2018-08-25T10:16:57.708Z,935.18
2018-08-25T10:17:57.603Z,935.10
2018-08-25T10:18:57.628Z,935.13
2018-08-25T10:19:57.647Z,935.19
2018-08-25T10:20:57.811Z,935.25
2018-08-25T10:21:57.655Z,935.26
2018-08-25T10:22:57.743Z,935.12
2018-08-25T10:23:57.698Z,935.09
2018-08-25T10:24:57.717Z,935.09
2018-08-25T10:25:57.804Z,935.15
2018-08-25T10:26:57.738Z,935.19
2018-08-25T10:27:57.747Z,935.32
2018-08-25T10:28:57.782Z,935.33
2018-08-25T10:29:57.758Z,935.26
2018-08-25T10:30:57.877Z,935.17
2018-08-25T10:31:57.799Z,935.25
2018-08-25T10:32:57.816Z,935.41
2018-08-25T10:33:57.828Z,935.40
2018-08-25T10:34:57.839Z,935.39
2018-08-25T10:35:58.004Z,935.42
2018-08-25T10:36:57.871Z,935.45
2018-08-25T10:37:57.883Z,935.50
2018-08-25T10:38:57.880Z,935.50
2018-08-25T10:39:57.915Z,935.47
2018-08-25T10:40:58.071Z,935.51
2018-08-25T10:41:57.945Z,935.45
2018-08-25T10:42:57.949Z,935.56
2018-08-25T10:43:57.961Z,935.61
2018-08-25T10:44:57.973Z,935.60
2018-08-25T10:45:58.132Z,935.60
2018-08-25T10:46:57.990Z,935.54
2018-08-25T10:47:58.042Z,935.54
2018-08-25T10:48:58.023Z,935.52
2018-08-25T10:49:58.048Z,935.50
2018-08-25T10:50:58.188Z,935.51
2018-08-25T10:51:58.075Z,935.55
2018-08-25T10:52:58.092Z,935.58
2018-08-25T10:53:58.136Z,935.62
2018-08-25T10:54:58.109Z,935.64
2018-08-25T10:55:58.272Z,935.72
2018-08-25T10:56:58.131Z,935.76
2018-08-25T10:57:58.150Z,935.82
2018-08-25T10:58:58.153Z,935.87
2018-08-25T10:59:58.184Z,935.93
2018-08-25T11:00:58.526Z,935.94
2018-08-25T11:01:58.205Z,935.94
2018-08-25T11:02:58.221Z,935.97
2018-08-25T11:03:58.216Z,935.93
2018-08-25T11:04:58.252Z,935.89
2018-08-25T11:05:58.414Z,935.90
2018-08-25T11:06:58.269Z,935.95
2018-08-25T11:07:58.290Z,935.98
2018-08-25T11:08:58.349Z,935.98
2018-08-25T11:09:58.319Z,935.97
2018-08-25T11:10:58.335Z,936.01
2018-08-25T11:11:58.482Z,936.00
2018-08-25T11:12:58.359Z,936.02
2018-08-25T11:13:58.376Z,935.97
2018-08-25T11:14:58.391Z,936.03
2018-08-25T11:15:58.396Z,936.03
2018-08-25T11:16:58.500Z,936.00
2018-08-25T11:17:58.437Z,935.95
2018-08-25T11:18:58.446Z,935.94
2018-08-25T11:19:58.462Z,935.93
2018-08-25T11:20:58.476Z,935.95
2018-08-25T11:21:58.639Z,935.97
2018-08-25T11:22:58.504Z,935.90
2018-08-25T11:23:58.513Z,935.91
2018-08-25T11:24:58.517Z,935.88
2018-08-25T11:25:58.551Z,935.90
2018-08-25T11:26:58.715Z,935.85
2018-08-25T11:27:58.580Z,935.90
2018-08-25T11:28:58.596Z,935.96
2018-08-25T11:29:58.608Z,935.98
2018-08-25T11:30:58.619Z,935.93
2018-08-25T11:31:58.770Z,935.98
2018-08-25T11:32:58.650Z,935.98
2018-08-25T11:33:58.668Z,936.02
2018-08-25T11:34:58.674Z,936.05
2018-08-25T11:35:58.698Z,936.04
2018-08-25T11:36:58.797Z,936.06
2018-08-25T11:37:58.783Z,936.07
2018-08-25T11:38:58.729Z,936.02
2018-08-25T11:39:58.747Z,936.03
2018-08-25T11:40:58.756Z,935.99
2018-08-25T11:41:58.936Z,935.98
2018-08-25T11:42:58.798Z,935.95
2018-08-25T11:43:58.838Z,935.92
2018-08-25T11:44:58.822Z,935.91
2018-08-25T11:45:58.847Z,935.88
2018-08-25T11:46:58.948Z,935.90
2018-08-25T11:47:58.866Z,935.85
2018-08-25T11:48:58.886Z,935.91
2018-08-25T11:49:58.904Z,935.90
2018-08-25T11:50:58.904Z,935.99
2018-08-25T11:51:59.097Z,935.99
2018-08-25T11:52:58.948Z,936.03
2018-08-25T11:53:58.969Z,936.06
2018-08-25T11:54:58.978Z,936.12
2018-08-25T11:55:58.975Z,936.17
2018-08-25T11:56:59.154Z,936.21
2018-08-25T11:57:59.015Z,936.23
2018-08-25T11:58:59.047Z,936.24
2018-08-25T11:59:59.034Z,936.24
2018-08-25T12:00:59.067Z,936.27
2018-08-25T12:01:59.228Z,936.29
2018-08-25T12:02:59.101Z,936.32
2018-08-25T12:03:59.106Z,936.33
2018-08-25T12:04:59.122Z,936.31
2018-08-25T12:05:59.142Z,936.33
2018-08-25T12:06:59.258Z,936.34
2018-08-25T12:07:59.157Z,936.33
2018-08-25T12:08:59.188Z,936.38
2018-08-25T12:09:59.200Z,936.43
2018-08-25T12:10:59.219Z,936.43
2018-08-25T12:11:59.384Z,936.46
2018-08-25T12:12:59.248Z,936.45
2018-08-25T12:13:59.258Z,936.44
2018-08-25T12:14:59.269Z,936.46
2018-08-25T12:15:59.330Z,936.44
2018-08-25T12:16:59.462Z,936.47
2018-08-25T12:17:59.332Z,936.49
2018-08-25T12:18:59.342Z,936.51
2018-08-25T12:19:59.351Z,936.58
2018-08-25T12:20:59.355Z,936.60
2018-08-25T12:21:59.395Z,936.64
2018-08-25T12:22:59.559Z,936.64
2018-08-25T12:23:59.470Z,936.65
2018-08-25T12:24:59.419Z,936.62
2018-08-25T12:25:59.449Z,936.64
2018-08-25T12:26:59.469Z,936.60
2018-08-25T12:27:59.622Z,936.63
2018-08-25T12:28:59.495Z,936.64